sensor_id;sensor_type;location;lat;lon;timestamp;P1;durP1;ratioP1;P2;durP2;ratioP2
74935;SDS011;63501;55.570;37.488;2024-01-30T00:00:41;28.70;;;24.23;;
74935;SDS011;63501;55.570;37.488;2024-01-30T00:03:08;32.97;;;26.95;;
74935;SDS011;63501;55.570;37.488;2024-01-30T00:05:35;30.10;;;23.60;;
74935;SDS011;63501;55.570;37.488;2024-01-30T00:08:04;29.65;;;23.70;;
74935;SDS011;63501;55.570;37.488;2024-01-30T00:10:32;28.75;;;23.92;;
74935;SDS011;63501;55.570;37.488;2024-01-30T00:12:59;31.33;;;26.27;;
74935;SDS011;63501;55.570;37.488;2024-01-30T00:15:26;32.38;;;26.55;;
74935;SDS011;63501;55.570;37.488;2024-01-30T00:17:54;31.33;;;23.48;;
74935;SDS011;63501;55.570;37.488;2024-01-30T00:20:22;30.33;;;24.20;;
74935;SDS011;63501;55.570;37.488;2024-01-30T00:22:49;34.60;;;28.02;;
74935;SDS011;63501;55.570;37.488;2024-01-30T00:25:17;31.63;;;25.55;;
74935;SDS011;63501;55.570;37.488;2024-01-30T00:27:45;32.58;;;24.83;;
74935;SDS011;63501;55.570;37.488;2024-01-30T00:30:12;31.75;;;24.92;;
74935;SDS011;63501;55.570;37.488;2024-01-30T00:32:40;30.38;;;24.42;;
74935;SDS011;63501;55.570;37.488;2024-01-30T00:35:07;32.38;;;24.92;;
74935;SDS011;63501;55.570;37.488;2024-01-30T00:37:35;31.75;;;27.30;;
74935;SDS011;63501;55.570;37.488;2024-01-30T00:40:03;31.60;;;25.67;;
74935;SDS011;63501;55.570;37.488;2024-01-30T00:42:32;30.08;;;24.80;;
74935;SDS011;63501;55.570;37.488;2024-01-30T00:44:59;31.55;;;24.38;;
74935;SDS011;63501;55.570;37.488;2024-01-30T00:47:28;30.85;;;25.00;;
74935;SDS011;63501;55.570;37.488;2024-01-30T00:49:55;34.85;;;27.08;;
74935;SDS011;63501;55.570;37.488;2024-01-30T00:52:22;31.52;;;25.15;;
74935;SDS011;63501;55.570;37.488;2024-01-30T00:54:49;34.70;;;28.27;;
74935;SDS011;63501;55.570;37.488;2024-01-30T00:57:17;32.65;;;26.60;;
74935;SDS011;63501;55.570;37.488;2024-01-30T00:59:46;31.23;;;25.88;;
74935;SDS011;63501;55.570;37.488;2024-01-30T01:02:13;34.83;;;26.00;;
74935;SDS011;63501;55.570;37.488;2024-01-30T01:04:42;32.38;;;25.90;;
74935;SDS011;63501;55.570;37.488;2024-01-30T01:07:10;37.70;;;31.88;;
74935;SDS011;63501;55.570;37.488;2024-01-30T01:09:37;36.80;;;28.55;;
74935;SDS011;63501;55.570;37.488;2024-01-30T01:12:04;34.70;;;27.98;;
74935;SDS011;63501;55.570;37.488;2024-01-30T01:14:32;33.53;;;28.25;;
74935;SDS011;63501;55.570;37.488;2024-01-30T01:17:01;31.95;;;24.50;;
74935;SDS011;63501;55.570;37.488;2024-01-30T01:19:28;36.28;;;29.58;;
74935;SDS011;63501;55.570;37.488;2024-01-30T01:21:55;34.47;;;27.52;;
74935;SDS011;63501;55.570;37.488;2024-01-30T01:24:22;36.58;;;28.55;;
74935;SDS011;63501;55.570;37.488;2024-01-30T01:26:49;37.47;;;28.98;;
74935;SDS011;63501;55.570;37.488;2024-01-30T01:29:17;32.67;;;26.23;;
74935;SDS011;63501;55.570;37.488;2024-01-30T01:31:44;34.72;;;26.83;;
74935;SDS011;63501;55.570;37.488;2024-01-30T01:36:40;32.92;;;26.13;;
74935;SDS011;63501;55.570;37.488;2024-01-30T01:39:07;35.90;;;26.65;;
74935;SDS011;63501;55.570;37.488;2024-01-30T01:41:35;36.42;;;27.02;;
74935;SDS011;63501;55.570;37.488;2024-01-30T01:44:03;34.03;;;27.77;;
74935;SDS011;63501;55.570;37.488;2024-01-30T01:48:59;34.78;;;29.95;;
74935;SDS011;63501;55.570;37.488;2024-01-30T01:51:29;35.05;;;29.02;;
74935;SDS011;63501;55.570;37.488;2024-01-30T01:53:57;35.22;;;29.52;;
74935;SDS011;63501;55.570;37.488;2024-01-30T01:56:28;34.40;;;28.55;;
74935;SDS011;63501;55.570;37.488;2024-01-30T01:58:59;35.70;;;28.02;;
74935;SDS011;63501;55.570;37.488;2024-01-30T02:01:31;37.13;;;28.50;;
74935;SDS011;63501;55.570;37.488;2024-01-30T02:03:59;34.22;;;27.63;;
74935;SDS011;63501;55.570;37.488;2024-01-30T02:06:28;39.80;;;30.08;;
74935;SDS011;63501;55.570;37.488;2024-01-30T02:08:56;35.80;;;28.13;;
74935;SDS011;63501;55.570;37.488;2024-01-30T02:11:23;36.20;;;27.30;;
74935;SDS011;63501;55.570;37.488;2024-01-30T02:16:17;33.28;;;28.73;;
74935;SDS011;63501;55.570;37.488;2024-01-30T02:18:44;36.08;;;28.10;;
74935;SDS011;63501;55.570;37.488;2024-01-30T02:21:18;32.75;;;26.73;;
74935;SDS011;63501;55.570;37.488;2024-01-30T02:23:46;34.63;;;28.75;;
74935;SDS011;63501;55.570;37.488;2024-01-30T02:26:13;36.90;;;29.00;;
74935;SDS011;63501;55.570;37.488;2024-01-30T02:28:41;36.13;;;27.77;;
74935;SDS011;63501;55.570;37.488;2024-01-30T02:31:08;37.17;;;28.10;;
74935;SDS011;63501;55.570;37.488;2024-01-30T02:33:35;30.60;;;24.30;;
74935;SDS011;63501;55.570;37.488;2024-01-30T02:36:02;38.28;;;31.17;;
74935;SDS011;63501;55.570;37.488;2024-01-30T02:38:31;39.42;;;29.70;;
74935;SDS011;63501;55.570;37.488;2024-01-30T02:40:59;34.58;;;26.98;;
74935;SDS011;63501;55.570;37.488;2024-01-30T02:43:26;40.28;;;28.95;;
74935;SDS011;63501;55.570;37.488;2024-01-30T02:45:53;34.53;;;26.85;;
74935;SDS011;63501;55.570;37.488;2024-01-30T02:48:20;40.85;;;30.98;;
74935;SDS011;63501;55.570;37.488;2024-01-30T02:50:47;33.55;;;25.60;;
74935;SDS011;63501;55.570;37.488;2024-01-30T02:53:14;33.17;;;26.85;;
74935;SDS011;63501;55.570;37.488;2024-01-30T02:55:43;38.00;;;30.95;;
74935;SDS011;63501;55.570;37.488;2024-01-30T02:58:10;41.03;;;30.48;;
74935;SDS011;63501;55.570;37.488;2024-01-30T03:00:37;35.60;;;28.48;;
74935;SDS011;63501;55.570;37.488;2024-01-30T03:03:04;41.40;;;32.72;;
74935;SDS011;63501;55.570;37.488;2024-01-30T03:05:31;44.92;;;35.42;;
74935;SDS011;63501;55.570;37.488;2024-01-30T03:07:58;41.97;;;32.33;;
74935;SDS011;63501;55.570;37.488;2024-01-30T03:12:54;44.47;;;33.83;;
74935;SDS011;63501;55.570;37.488;2024-01-30T03:15:21;42.42;;;33.67;;
74935;SDS011;63501;55.570;37.488;2024-01-30T03:17:48;45.20;;;39.20;;
74935;SDS011;63501;55.570;37.488;2024-01-30T03:20:15;42.50;;;35.13;;
74935;SDS011;63501;55.570;37.488;2024-01-30T03:22:43;42.25;;;34.75;;
74935;SDS011;63501;55.570;37.488;2024-01-30T03:25:10;44.08;;;35.75;;
74935;SDS011;63501;55.570;37.488;2024-01-30T03:27:37;46.38;;;40.70;;
74935;SDS011;63501;55.570;37.488;2024-01-30T03:30:07;46.60;;;38.20;;
74935;SDS011;63501;55.570;37.488;2024-01-30T03:32:35;49.30;;;40.70;;
74935;SDS011;63501;55.570;37.488;2024-01-30T03:35:02;50.22;;;40.90;;
74935;SDS011;63501;55.570;37.488;2024-01-30T03:39:56;47.95;;;38.28;;
74935;SDS011;63501;55.570;37.488;2024-01-30T03:42:23;46.22;;;38.22;;
74935;SDS011;63501;55.570;37.488;2024-01-30T03:44:50;41.30;;;34.25;;
74935;SDS011;63501;55.570;37.488;2024-01-30T03:47:20;48.13;;;37.75;;
74935;SDS011;63501;55.570;37.488;2024-01-30T03:49:47;46.97;;;35.60;;
74935;SDS011;63501;55.570;37.488;2024-01-30T03:52:15;42.85;;;34.45;;
74935;SDS011;63501;55.570;37.488;2024-01-30T03:54:42;44.97;;;35.25;;
74935;SDS011;63501;55.570;37.488;2024-01-30T03:57:12;45.50;;;34.85;;
74935;SDS011;63501;55.570;37.488;2024-01-30T03:59:41;46.00;;;35.30;;
74935;SDS011;63501;55.570;37.488;2024-01-30T04:02:09;40.40;;;34.45;;
74935;SDS011;63501;55.570;37.488;2024-01-30T04:04:38;42.95;;;33.55;;
74935;SDS011;63501;55.570;37.488;2024-01-30T04:07:05;44.97;;;34.58;;
74935;SDS011;63501;55.570;37.488;2024-01-30T04:09:32;46.67;;;36.20;;
74935;SDS011;63501;55.570;37.488;2024-01-30T04:12:00;40.50;;;32.50;;
74935;SDS011;63501;55.570;37.488;2024-01-30T04:14:28;42.80;;;34.72;;
74935;SDS011;63501;55.570;37.488;2024-01-30T04:16:55;40.20;;;32.05;;
74935;SDS011;63501;55.570;37.488;2024-01-30T04:19:22;39.97;;;33.50;;
74935;SDS011;63501;55.570;37.488;2024-01-30T04:21:51;39.47;;;31.52;;
74935;SDS011;63501;55.570;37.488;2024-01-30T04:24:18;40.58;;;32.75;;
74935;SDS011;63501;55.570;37.488;2024-01-30T04:26:45;39.72;;;32.67;;
74935;SDS011;63501;55.570;37.488;2024-01-30T04:29:12;45.92;;;34.50;;
74935;SDS011;63501;55.570;37.488;2024-01-30T04:31:39;45.05;;;34.22;;
74935;SDS011;63501;55.570;37.488;2024-01-30T04:34:07;42.65;;;33.78;;
74935;SDS011;63501;55.570;37.488;2024-01-30T04:36:34;38.40;;;29.08;;
74935;SDS011;63501;55.570;37.488;2024-01-30T04:39:02;39.90;;;32.38;;
74935;SDS011;63501;55.570;37.488;2024-01-30T04:41:30;43.33;;;33.15;;
74935;SDS011;63501;55.570;37.488;2024-01-30T04:43:57;44.58;;;34.38;;
74935;SDS011;63501;55.570;37.488;2024-01-30T04:46:24;41.75;;;34.30;;
74935;SDS011;63501;55.570;37.488;2024-01-30T04:48:55;41.47;;;33.15;;
74935;SDS011;63501;55.570;37.488;2024-01-30T04:51:22;41.03;;;32.63;;
74935;SDS011;63501;55.570;37.488;2024-01-30T04:53:49;44.35;;;32.08;;
74935;SDS011;63501;55.570;37.488;2024-01-30T04:56:18;45.42;;;34.90;;
74935;SDS011;63501;55.570;37.488;2024-01-30T04:58:45;43.42;;;34.38;;
74935;SDS011;63501;55.570;37.488;2024-01-30T05:01:14;41.15;;;33.28;;
74935;SDS011;63501;55.570;37.488;2024-01-30T05:03:42;41.58;;;32.72;;
74935;SDS011;63501;55.570;37.488;2024-01-30T05:06:09;42.80;;;33.60;;
74935;SDS011;63501;55.570;37.488;2024-01-30T05:08:36;40.88;;;32.60;;
74935;SDS011;63501;55.570;37.488;2024-01-30T05:11:04;43.53;;;34.33;;
74935;SDS011;63501;55.570;37.488;2024-01-30T05:13:34;40.00;;;31.77;;
74935;SDS011;63501;55.570;37.488;2024-01-30T05:16:01;43.97;;;36.50;;
74935;SDS011;63501;55.570;37.488;2024-01-30T05:18:29;46.45;;;35.80;;
74935;SDS011;63501;55.570;37.488;2024-01-30T05:20:56;37.58;;;29.13;;
74935;SDS011;63501;55.570;37.488;2024-01-30T05:23:24;34.55;;;28.60;;
74935;SDS011;63501;55.570;37.488;2024-01-30T05:25:51;26.40;;;23.50;;
74935;SDS011;63501;55.570;37.488;2024-01-30T05:28:18;23.08;;;19.05;;
74935;SDS011;63501;55.570;37.488;2024-01-30T05:30:47;28.17;;;22.40;;
74935;SDS011;63501;55.570;37.488;2024-01-30T05:33:14;24.52;;;20.88;;
74935;SDS011;63501;55.570;37.488;2024-01-30T05:35:41;27.13;;;19.27;;
74935;SDS011;63501;55.570;37.488;2024-01-30T05:38:09;16.17;;;13.73;;
74935;SDS011;63501;55.570;37.488;2024-01-30T05:40:37;15.82;;;12.60;;
74935;SDS011;63501;55.570;37.488;2024-01-30T05:43:05;17.23;;;13.35;;
74935;SDS011;63501;55.570;37.488;2024-01-30T05:45:32;16.35;;;12.45;;
74935;SDS011;63501;55.570;37.488;2024-01-30T05:48:01;13.38;;;11.07;;
74935;SDS011;63501;55.570;37.488;2024-01-30T05:50:29;12.13;;;9.98;;
74935;SDS011;63501;55.570;37.488;2024-01-30T05:52:56;11.50;;;8.77;;
74935;SDS011;63501;55.570;37.488;2024-01-30T05:55:24;10.48;;;9.05;;
74935;SDS011;63501;55.570;37.488;2024-01-30T05:57:51;12.63;;;9.48;;
74935;SDS011;63501;55.570;37.488;2024-01-30T06:00:18;12.30;;;10.10;;
74935;SDS011;63501;55.570;37.488;2024-01-30T06:02:46;14.88;;;10.10;;
74935;SDS011;63501;55.570;37.488;2024-01-30T06:05:14;14.93;;;10.50;;
74935;SDS011;63501;55.570;37.488;2024-01-30T06:07:41;17.08;;;12.70;;
74935;SDS011;63501;55.570;37.488;2024-01-30T06:10:09;13.65;;;11.70;;
74935;SDS011;63501;55.570;37.488;2024-01-30T06:12:36;18.20;;;13.57;;
74935;SDS011;63501;55.570;37.488;2024-01-30T06:15:04;16.80;;;12.98;;
74935;SDS011;63501;55.570;37.488;2024-01-30T06:17:33;17.60;;;14.38;;
74935;SDS011;63501;55.570;37.488;2024-01-30T06:20:00;16.58;;;13.88;;
74935;SDS011;63501;55.570;37.488;2024-01-30T06:22:30;15.60;;;13.90;;
74935;SDS011;63501;55.570;37.488;2024-01-30T06:24:57;17.90;;;15.32;;
74935;SDS011;63501;55.570;37.488;2024-01-30T06:27:24;18.83;;;14.10;;
74935;SDS011;63501;55.570;37.488;2024-01-30T06:29:51;16.58;;;13.90;;
74935;SDS011;63501;55.570;37.488;2024-01-30T06:32:18;18.15;;;15.93;;
74935;SDS011;63501;55.570;37.488;2024-01-30T06:34:46;17.02;;;13.25;;
74935;SDS011;63501;55.570;37.488;2024-01-30T06:37:13;11.05;;;9.77;;
74935;SDS011;63501;55.570;37.488;2024-01-30T06:42:09;10.63;;;7.97;;
74935;SDS011;63501;55.570;37.488;2024-01-30T06:44:37;11.73;;;7.95;;
74935;SDS011;63501;55.570;37.488;2024-01-30T06:47:04;11.65;;;8.30;;
74935;SDS011;63501;55.570;37.488;2024-01-30T06:49:31;8.10;;;6.90;;
74935;SDS011;63501;55.570;37.488;2024-01-30T06:51:58;9.00;;;7.45;;
74935;SDS011;63501;55.570;37.488;2024-01-30T06:54:25;8.85;;;6.65;;
74935;SDS011;63501;55.570;37.488;2024-01-30T06:56:54;7.13;;;6.10;;
74935;SDS011;63501;55.570;37.488;2024-01-30T06:59:21;7.57;;;5.88;;
74935;SDS011;63501;55.570;37.488;2024-01-30T07:04:15;10.35;;;5.72;;
74935;SDS011;63501;55.570;37.488;2024-01-30T07:06:44;6.88;;;4.72;;
74935;SDS011;63501;55.570;37.488;2024-01-30T07:09:11;6.30;;;5.22;;
74935;SDS011;63501;55.570;37.488;2024-01-30T07:11:39;6.47;;;4.88;;
74935;SDS011;63501;55.570;37.488;2024-01-30T07:14:08;5.28;;;4.28;;
74935;SDS011;63501;55.570;37.488;2024-01-30T07:16:35;6.07;;;4.47;;
74935;SDS011;63501;55.570;37.488;2024-01-30T07:19:03;5.43;;;3.90;;
74935;SDS011;63501;55.570;37.488;2024-01-30T07:21:31;10.45;;;5.70;;
74935;SDS011;63501;55.570;37.488;2024-01-30T07:23:58;5.72;;;4.80;;
74935;SDS011;63501;55.570;37.488;2024-01-30T07:28:52;8.93;;;5.13;;
74935;SDS011;63501;55.570;37.488;2024-01-30T07:31:21;8.30;;;4.60;;
74935;SDS011;63501;55.570;37.488;2024-01-30T07:33:48;10.30;;;4.93;;
74935;SDS011;63501;55.570;37.488;2024-01-30T07:36:15;12.23;;;5.93;;
74935;SDS011;63501;55.570;37.488;2024-01-30T07:41:09;12.27;;;5.68;;
74935;SDS011;63501;55.570;37.488;2024-01-30T07:43:38;10.35;;;5.20;;
74935;SDS011;63501;55.570;37.488;2024-01-30T07:46:05;15.05;;;5.78;;
74935;SDS011;63501;55.570;37.488;2024-01-30T07:48:34;14.75;;;5.88;;
74935;SDS011;63501;55.570;37.488;2024-01-30T07:51:02;9.85;;;5.05;;
74935;SDS011;63501;55.570;37.488;2024-01-30T07:56:15;9.77;;;5.15;;
74935;SDS011;63501;55.570;37.488;2024-01-30T07:58:42;8.38;;;4.88;;
74935;SDS011;63501;55.570;37.488;2024-01-30T08:03:38;7.78;;;4.82;;
74935;SDS011;63501;55.570;37.488;2024-01-30T08:06:06;8.52;;;4.15;;
74935;SDS011;63501;55.570;37.488;2024-01-30T08:08:34;11.10;;;4.25;;
74935;SDS011;63501;55.570;37.488;2024-01-30T08:11:01;12.05;;;4.68;;
74935;SDS011;63501;55.570;37.488;2024-01-30T08:13:28;7.38;;;3.72;;
74935;SDS011;63501;55.570;37.488;2024-01-30T08:15:55;8.88;;;4.40;;
74935;SDS011;63501;55.570;37.488;2024-01-30T08:18:23;8.85;;;4.28;;
74935;SDS011;63501;55.570;37.488;2024-01-30T08:20:51;5.80;;;3.42;;
74935;SDS011;63501;55.570;37.488;2024-01-30T08:23:18;9.05;;;3.83;;
74935;SDS011;63501;55.570;37.488;2024-01-30T08:25:45;7.13;;;3.80;;
74935;SDS011;63501;55.570;37.488;2024-01-30T08:28:13;7.50;;;3.90;;
74935;SDS011;63501;55.570;37.488;2024-01-30T08:33:07;6.20;;;3.47;;
74935;SDS011;63501;55.570;37.488;2024-01-30T08:35:34;6.20;;;3.58;;
74935;SDS011;63501;55.570;37.488;2024-01-30T08:38:03;6.70;;;3.42;;
74935;SDS011;63501;55.570;37.488;2024-01-30T08:40:30;5.60;;;3.15;;
74935;SDS011;63501;55.570;37.488;2024-01-30T08:42:57;7.10;;;3.42;;
74935;SDS011;63501;55.570;37.488;2024-01-30T08:45:24;5.88;;;3.33;;
74935;SDS011;63501;55.570;37.488;2024-01-30T08:47:52;5.68;;;3.83;;
74935;SDS011;63501;55.570;37.488;2024-01-30T08:50:19;6.28;;;3.10;;
74935;SDS011;63501;55.570;37.488;2024-01-30T08:52:47;4.70;;;3.20;;
74935;SDS011;63501;55.570;37.488;2024-01-30T08:55:15;6.00;;;3.45;;
74935;SDS011;63501;55.570;37.488;2024-01-30T08:57:44;6.20;;;3.05;;
74935;SDS011;63501;55.570;37.488;2024-01-30T09:00:11;5.18;;;2.90;;
74935;SDS011;63501;55.570;37.488;2024-01-30T09:02:40;4.28;;;3.20;;
74935;SDS011;63501;55.570;37.488;2024-01-30T09:07:34;6.22;;;3.47;;
74935;SDS011;63501;55.570;37.488;2024-01-30T09:10:01;4.97;;;3.10;;
74935;SDS011;63501;55.570;37.488;2024-01-30T09:12:30;8.07;;;3.33;;
74935;SDS011;63501;55.570;37.488;2024-01-30T09:14:57;4.82;;;2.78;;
74935;SDS011;63501;55.570;37.488;2024-01-30T09:17:25;4.38;;;3.08;;
74935;SDS011;63501;55.570;37.488;2024-01-30T09:19:52;4.65;;;2.80;;
74935;SDS011;63501;55.570;37.488;2024-01-30T09:22:19;4.90;;;2.65;;
74935;SDS011;63501;55.570;37.488;2024-01-30T09:27:13;5.47;;;3.03;;
74935;SDS011;63501;55.570;37.488;2024-01-30T09:29:42;4.68;;;2.80;;
74935;SDS011;63501;55.570;37.488;2024-01-30T09:32:09;7.03;;;3.08;;
74935;SDS011;63501;55.570;37.488;2024-01-30T09:34:36;5.05;;;2.80;;
74935;SDS011;63501;55.570;37.488;2024-01-30T09:37:04;5.38;;;3.10;;
74935;SDS011;63501;55.570;37.488;2024-01-30T09:42:00;8.00;;;2.80;;
74935;SDS011;63501;55.570;37.488;2024-01-30T09:44:32;3.65;;;2.47;;
74935;SDS011;63501;55.570;37.488;2024-01-30T09:47:03;3.97;;;2.55;;
74935;SDS011;63501;55.570;37.488;2024-01-30T09:49:34;4.82;;;2.65;;
74935;SDS011;63501;55.570;37.488;2024-01-30T09:52:01;3.80;;;2.88;;
74935;SDS011;63501;55.570;37.488;2024-01-30T09:54:29;5.95;;;2.92;;
74935;SDS011;63501;55.570;37.488;2024-01-30T09:56:57;4.15;;;2.40;;
74935;SDS011;63501;55.570;37.488;2024-01-30T10:01:51;4.82;;;2.45;;
74935;SDS011;63501;55.570;37.488;2024-01-30T10:06:47;4.95;;;2.60;;
74935;SDS011;63501;55.570;37.488;2024-01-30T10:09:15;3.67;;;2.40;;
74935;SDS011;63501;55.570;37.488;2024-01-30T10:11:42;5.38;;;2.72;;
74935;SDS011;63501;55.570;37.488;2024-01-30T10:14:09;3.47;;;2.65;;
74935;SDS011;63501;55.570;37.488;2024-01-30T10:19:03;5.10;;;2.97;;
74935;SDS011;63501;55.570;37.488;2024-01-30T10:21:32;4.47;;;2.53;;
74935;SDS011;63501;55.570;37.488;2024-01-30T10:23:59;6.13;;;2.72;;
74935;SDS011;63501;55.570;37.488;2024-01-30T10:28:54;3.95;;;2.45;;
74935;SDS011;63501;55.570;37.488;2024-01-30T10:31:22;6.05;;;3.00;;
74935;SDS011;63501;55.570;37.488;2024-01-30T10:33:49;3.60;;;2.50;;
74935;SDS011;63501;55.570;37.488;2024-01-30T10:36:16;4.68;;;2.60;;
74935;SDS011;63501;55.570;37.488;2024-01-30T10:38:46;4.57;;;2.78;;
74935;SDS011;63501;55.570;37.488;2024-01-30T10:41:18;4.10;;;2.50;;
74935;SDS011;63501;55.570;37.488;2024-01-30T10:43:50;4.90;;;2.75;;
74935;SDS011;63501;55.570;37.488;2024-01-30T10:46:25;3.97;;;2.28;;
74935;SDS011;63501;55.570;37.488;2024-01-30T10:48:57;4.82;;;3.28;;
74935;SDS011;63501;55.570;37.488;2024-01-30T10:51:25;4.55;;;2.92;;
74935;SDS011;63501;55.570;37.488;2024-01-30T10:53:55;4.95;;;2.70;;
74935;SDS011;63501;55.570;37.488;2024-01-30T10:56:23;4.28;;;3.20;;
74935;SDS011;63501;55.570;37.488;2024-01-30T10:58:51;4.88;;;3.15;;
74935;SDS011;63501;55.570;37.488;2024-01-30T11:01:20;3.95;;;2.80;;
74935;SDS011;63501;55.570;37.488;2024-01-30T11:03:50;3.70;;;3.00;;
74935;SDS011;63501;55.570;37.488;2024-01-30T11:06:18;5.05;;;3.00;;
74935;SDS011;63501;55.570;37.488;2024-01-30T11:09:01;4.10;;;3.00;;
74935;SDS011;63501;55.570;37.488;2024-01-30T11:11:46;5.10;;;2.70;;
74935;SDS011;63501;55.570;37.488;2024-01-30T11:14:15;3.95;;;2.63;;
74935;SDS011;63501;55.570;37.488;2024-01-30T11:16:42;4.55;;;2.70;;
74935;SDS011;63501;55.570;37.488;2024-01-30T11:19:10;3.65;;;2.78;;
74935;SDS011;63501;55.570;37.488;2024-01-30T11:21:40;4.30;;;2.95;;
74935;SDS011;63501;55.570;37.488;2024-01-30T11:24:09;3.50;;;3.10;;
74935;SDS011;63501;55.570;37.488;2024-01-30T11:26:39;3.60;;;2.70;;
74935;SDS011;63501;55.570;37.488;2024-01-30T11:29:09;4.00;;;2.63;;
74935;SDS011;63501;55.570;37.488;2024-01-30T11:31:40;4.32;;;2.97;;
74935;SDS011;63501;55.570;37.488;2024-01-30T11:34:17;4.00;;;3.15;;
74935;SDS011;63501;55.570;37.488;2024-01-30T11:36:45;3.40;;;2.80;;
74935;SDS011;63501;55.570;37.488;2024-01-30T11:39:25;4.28;;;2.85;;
74935;SDS011;63501;55.570;37.488;2024-01-30T11:41:53;4.20;;;2.80;;
74935;SDS011;63501;55.570;37.488;2024-01-30T11:44:22;4.93;;;2.63;;
74935;SDS011;63501;55.570;37.488;2024-01-30T11:46:50;6.00;;;2.90;;
74935;SDS011;63501;55.570;37.488;2024-01-30T11:49:17;3.75;;;2.85;;
74935;SDS011;63501;55.570;37.488;2024-01-30T11:51:45;4.13;;;2.65;;
74935;SDS011;63501;55.570;37.488;2024-01-30T11:54:14;3.85;;;2.92;;
74935;SDS011;63501;55.570;37.488;2024-01-30T11:56:43;4.18;;;2.75;;
74935;SDS011;63501;55.570;37.488;2024-01-30T11:59:11;4.40;;;3.15;;
74935;SDS011;63501;55.570;37.488;2024-01-30T12:01:38;6.03;;;2.95;;
74935;SDS011;63501;55.570;37.488;2024-01-30T12:06:34;4.00;;;2.85;;
74935;SDS011;63501;55.570;37.488;2024-01-30T12:09:02;3.53;;;2.80;;
74935;SDS011;63501;55.570;37.488;2024-01-30T12:11:31;5.07;;;3.20;;
74935;SDS011;63501;55.570;37.488;2024-01-30T12:13:59;4.18;;;2.53;;
74935;SDS011;63501;55.570;37.488;2024-01-30T12:16:27;4.88;;;3.03;;
74935;SDS011;63501;55.570;37.488;2024-01-30T12:19:00;4.35;;;2.70;;
74935;SDS011;63501;55.570;37.488;2024-01-30T12:21:28;4.32;;;2.75;;
74935;SDS011;63501;55.570;37.488;2024-01-30T12:23:55;3.85;;;2.70;;
74935;SDS011;63501;55.570;37.488;2024-01-30T12:26:23;2.97;;;2.53;;
74935;SDS011;63501;55.570;37.488;2024-01-30T12:28:54;3.20;;;2.53;;
74935;SDS011;63501;55.570;37.488;2024-01-30T12:31:27;3.38;;;2.60;;
74935;SDS011;63501;55.570;37.488;2024-01-30T12:33:55;4.00;;;3.03;;
74935;SDS011;63501;55.570;37.488;2024-01-30T12:36:22;2.95;;;2.42;;
74935;SDS011;63501;55.570;37.488;2024-01-30T12:41:16;4.35;;;2.53;;
74935;SDS011;63501;55.570;37.488;2024-01-30T12:43:44;3.25;;;2.85;;
74935;SDS011;63501;55.570;37.488;2024-01-30T12:46:13;3.53;;;2.70;;
74935;SDS011;63501;55.570;37.488;2024-01-30T12:48:41;3.25;;;2.78;;
74935;SDS011;63501;55.570;37.488;2024-01-30T12:51:08;3.88;;;2.75;;
74935;SDS011;63501;55.570;37.488;2024-01-30T12:56:03;4.60;;;2.47;;
74935;SDS011;63501;55.570;37.488;2024-01-30T12:58:30;3.58;;;3.00;;
74935;SDS011;63501;55.570;37.488;2024-01-30T13:00:57;5.18;;;2.55;;
74935;SDS011;63501;55.570;37.488;2024-01-30T13:03:24;3.88;;;2.63;;
74935;SDS011;63501;55.570;37.488;2024-01-30T13:08:20;4.82;;;2.80;;
74935;SDS011;63501;55.570;37.488;2024-01-30T13:10:48;3.38;;;3.08;;
74935;SDS011;63501;55.570;37.488;2024-01-30T13:13:15;3.90;;;3.03;;
74935;SDS011;63501;55.570;37.488;2024-01-30T13:18:09;4.72;;;2.83;;
74935;SDS011;63501;55.570;37.488;2024-01-30T13:20:37;4.10;;;3.10;;
74935;SDS011;63501;55.570;37.488;2024-01-30T13:23:05;4.43;;;2.63;;
74935;SDS011;63501;55.570;37.488;2024-01-30T13:25:32;4.97;;;3.10;;
74935;SDS011;63501;55.570;37.488;2024-01-30T13:27:59;5.22;;;2.92;;
74935;SDS011;63501;55.570;37.488;2024-01-30T13:30:27;4.07;;;2.85;;
74935;SDS011;63501;55.570;37.488;2024-01-30T13:32:54;4.32;;;2.95;;
74935;SDS011;63501;55.570;37.488;2024-01-30T13:35:21;4.07;;;2.80;;
74935;SDS011;63501;55.570;37.488;2024-01-30T13:40:17;4.20;;;2.92;;
74935;SDS011;63501;55.570;37.488;2024-01-30T13:42:44;6.05;;;3.03;;
74935;SDS011;63501;55.570;37.488;2024-01-30T13:45:11;3.85;;;3.40;;
74935;SDS011;63501;55.570;37.488;2024-01-30T13:47:39;5.72;;;3.30;;
74935;SDS011;63501;55.570;37.488;2024-01-30T13:52:33;5.93;;;3.25;;
74935;SDS011;63501;55.570;37.488;2024-01-30T13:55:00;6.65;;;2.70;;
74935;SDS011;63501;55.570;37.488;2024-01-30T13:57:30;4.75;;;2.88;;
74935;SDS011;63501;55.570;37.488;2024-01-30T14:00:01;3.90;;;2.88;;
74935;SDS011;63501;55.570;37.488;2024-01-30T14:02:29;5.40;;;3.28;;
74935;SDS011;63501;55.570;37.488;2024-01-30T14:04:56;4.70;;;3.20;;
74935;SDS011;63501;55.570;37.488;2024-01-30T14:07:23;4.88;;;2.95;;
74935;SDS011;63501;55.570;37.488;2024-01-30T14:12:17;5.57;;;3.15;;
74935;SDS011;63501;55.570;37.488;2024-01-30T14:17:13;6.82;;;2.70;;
74935;SDS011;63501;55.570;37.488;2024-01-30T14:19:40;4.68;;;3.10;;
74935;SDS011;63501;55.570;37.488;2024-01-30T14:22:07;3.75;;;2.67;;
74935;SDS011;63501;55.570;37.488;2024-01-30T14:24:34;4.80;;;2.85;;
74935;SDS011;63501;55.570;37.488;2024-01-30T14:27:02;6.78;;;2.88;;
74935;SDS011;63501;55.570;37.488;2024-01-30T14:31:58;4.70;;;3.28;;
74935;SDS011;63501;55.570;37.488;2024-01-30T14:34:25;4.00;;;2.80;;
74935;SDS011;63501;55.570;37.488;2024-01-30T14:36:52;2.97;;;2.42;;
74935;SDS011;63501;55.570;37.488;2024-01-30T14:39:19;3.45;;;2.72;;
74935;SDS011;63501;55.570;37.488;2024-01-30T14:41:47;4.90;;;3.17;;
74935;SDS011;63501;55.570;37.488;2024-01-30T14:44:14;7.13;;;3.33;;
74935;SDS011;63501;55.570;37.488;2024-01-30T14:49:10;4.03;;;2.85;;
74935;SDS011;63501;55.570;37.488;2024-01-30T14:51:37;5.32;;;3.05;;
74935;SDS011;63501;55.570;37.488;2024-01-30T14:54:04;4.05;;;3.28;;
74935;SDS011;63501;55.570;37.488;2024-01-30T14:56:32;4.97;;;2.88;;
74935;SDS011;63501;55.570;37.488;2024-01-30T15:01:26;3.72;;;2.75;;
74935;SDS011;63501;55.570;37.488;2024-01-30T15:03:53;4.05;;;3.20;;
74935;SDS011;63501;55.570;37.488;2024-01-30T15:06:22;5.25;;;3.28;;
74935;SDS011;63501;55.570;37.488;2024-01-30T15:08:50;4.55;;;3.05;;
74935;SDS011;63501;55.570;37.488;2024-01-30T15:11:17;4.43;;;3.10;;
74935;SDS011;63501;55.570;37.488;2024-01-30T15:13:44;4.65;;;3.22;;
74935;SDS011;63501;55.570;37.488;2024-01-30T15:16:12;4.53;;;3.00;;
74935;SDS011;63501;55.570;37.488;2024-01-30T15:18:39;5.32;;;3.40;;
74935;SDS011;63501;55.570;37.488;2024-01-30T15:21:06;4.05;;;2.83;;
74935;SDS011;63501;55.570;37.488;2024-01-30T15:23:35;3.97;;;3.03;;
74935;SDS011;63501;55.570;37.488;2024-01-30T15:26:02;5.05;;;2.90;;
74935;SDS011;63501;55.570;37.488;2024-01-30T15:28:35;4.55;;;3.13;;
74935;SDS011;63501;55.570;37.488;2024-01-30T15:31:03;5.60;;;3.42;;
74935;SDS011;63501;55.570;37.488;2024-01-30T15:33:32;5.75;;;2.97;;
74935;SDS011;63501;55.570;37.488;2024-01-30T15:36:00;6.30;;;3.15;;
74935;SDS011;63501;55.570;37.488;2024-01-30T15:38:28;4.75;;;3.40;;
74935;SDS011;63501;55.570;37.488;2024-01-30T15:40:56;5.30;;;3.40;;
74935;SDS011;63501;55.570;37.488;2024-01-30T15:43:24;5.25;;;3.22;;